Nearby METAR Reports

 

KBDU - Boulder Muni, Colorado, USA
Distance from station: ESE 5mi, 9km
Updated: Mon, 25-Sep-2017 5:16am MDT
Overcast
Overcast
 Wind from N
Wind: N 5 mph , 7 km/h
Temperature: 45°F , 7°C
Wind Chill: 42°F , 6°C
Dew Point: 43°F , 6°C
Humidity: 93%
Barometer: 30.11 inHg , 1019.6 hPa
Clouds: Overcast
Visibility: 10 miles , 16 km
Cloud details: Partly cloudy 900 ft
Overcast 1600 ft
2017/09/25 11:16 KBDU 251116Z AUTO 36004KT 10SM SCT009 OVC016 07/06 A3011 RMK AO2 LTG DSNT E
KLMO - Longmont/Vbrand, Colorado, USA
Distance from station: NE 11mi, 18km
Updated: Mon, 25-Sep-2017 5:15am MDT
Mist, Overcast
Mist, Overcast
 Wind from N
Wind: N 7 mph , 11 km/h
Temperature: 46°F , 8°C
Wind Chill: 42°F , 6°C
Dew Point: 43°F , 6°C
Humidity: 87%
Barometer: 30.13 inHg , 1020.3 hPa
Summary: Mist
Clouds: Overcast
Visibility: 5 miles , 8 km
Cloud details: Overcast 3700 ft
2017/09/25 11:15 KLMO 251115Z AUTO 35006KT 5SM BR OVC037 08/06 A3013 RMK AO2 T00800056
 
KEIK - Erie Muni, Colorado, USA
Distance from station: ESE 15mi, 24km
Updated: Mon, 25-Sep-2017 5:18am MDT
Overcast
Overcast
 Wind from N
Wind: N 8 mph , 13 km/h
Temperature: 45°F , 7°C
Wind Chill: 41°F , 5°C
Dew Point: 43°F , 6°C
Humidity: 93%
Barometer: 30.16 inHg , 1021.3 hPa
Clouds: Overcast
Visibility: 10 miles , 16 km
Cloud details: Overcast 3200 ft
2017/09/25 11:18 KEIK 251118Z AUTO 01007KT 10SM OVC032 07/06 A3016 RMK AO2 T00710055
KBJC - Broomfield/Jeffc, Colorado, USA
Distance from station: SE 17mi, 27km
Updated: Mon, 25-Sep-2017 5:12am MDT
Overcast
Overcast
 Wind from N
Wind: N 7 mph , 11 km/h
Temperature: 45°F , 7°C
Wind Chill: 41°F , 5°C
Dew Point: 41°F , 5°C
Humidity: 87%
Barometer: 30.12 inHg , 1020 hPa
Clouds: Overcast
Visibility: 10 miles , 16 km
Cloud details: Overcast 2200 ft
2017/09/25 11:12 KBJC 251112Z AUTO 35006KT 10SM OVC022 07/05 A3012 RMK AO2 LTG DSNT E
 
KFNL - Ft Collins/Lovel, Colorado, USA
Distance from station: NNE 31mi, 50km
Updated: Mon, 25-Sep-2017 5:04am MDT
Overcast
Overcast
 Wind from N
Wind: N 9 mph , 15 km/h
Temperature: 43°F , 6°C
Wind Chill: 38°F , 3°C
Dew Point: 41°F , 5°C
Humidity: 93%
Barometer: 30.13 inHg , 1020.3 hPa
Clouds: Overcast
Visibility: 10 miles , 16 km
Cloud details: Overcast 1400 ft
2017/09/25 11:04 KFNL 251104Z AUTO 01008KT 10SM OVC014 06/05 A3013 RMK AO2 PNO $
KDEN - Denver (dia), Colorado, USA
Distance from station: ESE 39mi, 62km
Updated: Mon, 25-Sep-2017 4:53am MDT
Overcast
Overcast
 Wind from NNW
Wind: NNW 13 mph , 20 km/h
Temperature: 45°F , 7°C
Wind Chill: 39°F , 4°C
Dew Point: 43°F , 6°C
Humidity: 93%
Barometer: 30.10 inHg , 1019.3 hPa
Clouds: Overcast
Visibility: 10 miles , 16 km
Cloud details: Overcast 500 ft
2017/09/25 10:53 KDEN 251053Z 33011KT 10SM OVC005 07/06 A3010 RMK AO2 SLP165 T00720056
 
KBKF - Buckley Angb/Den, Colorado, USA
Distance from station: SE 39mi, 63km
Updated: Mon, 25-Sep-2017 4:58am MDT
Overcast
Overcast
 Wind from NNW
Wind: NNW 8 mph , 13 km/h
Temperature: 45°F , 7°C
Wind Chill: 41°F , 5°C
Dew Point: 45°F , 7°C
Humidity: 100%
Barometer: 30.10 inHg , 1019.3 hPa
Clouds: Overcast
Visibility: 9 miles , 14 km
Cloud details: Overcast 500 ft
2017/09/25 10:58 KBKF 251058Z 34007KT 9SM OVC005 07/07 A3010 RMK AO2A SLP167 P0000 T00690069
KAPA - Denver/Arapahoe, Colorado, USA
Distance from station: SE 43mi, 69km
Updated: Mon, 25-Sep-2017 4:53am MDT
Mist, Overcast
Mist, Overcast
 Wind from NE
Wind: NE 3 mph , 6 km/h
Temperature: 45°F , 7°C
Dew Point: 45°F , 7°C
Humidity: 100%
Barometer: 30.10 inHg , 1019.3 hPa
Summary: Mist
Clouds: Overcast
Visibility: 2 miles , 3 km
Cloud details: Overcast 200 ft
2017/09/25 10:53 KAPA 251053Z 05003KT 2SM BR OVC002 07/07 A3010 RMK AO2 SLP181 T00670067
 
KGXY - Greeley/Weld, Colorado, USA
Distance from station: NE 45mi, 72km
Updated: Mon, 25-Sep-2017 5:04am MDT
Light rain, Mist, Overcast
Light rain, Mist, Overcast
 Wind from NNW
Wind: NNW 7 mph , 11 km/h
Temperature: 45°F , 7°C
Wind Chill: 41°F , 5°C
Dew Point: 45°F , 7°C
Humidity: 100%
Barometer: 30.12 inHg , 1020 hPa
Summary: Light rain, Mist
Clouds: Overcast
Visibility: 5 miles , 8 km
Cloud details: Few Clouds 500 ft
Overcast 1000 ft
2017/09/25 11:04 KGXY 251104Z AUTO 34006KT 5SM -RA BR FEW005 OVC010 07/07 A3012 RMK AO2 CIG 008V012 P0000
KFTG - Denver F. Range, Colorado, USA
Distance from station: ESE 46mi, 73km
Updated: Mon, 25-Sep-2017 5:14am MDT
Light rain, Overcast
Light rain, Overcast
 Wind from NW
Wind: NW 9 mph , 15 km/h
Temperature: 45°F , 7°C
Wind Chill: 40°F , 4°C
Dew Point: 45°F , 7°C
Humidity: 100%
Barometer: 30.09 inHg , 1019 hPa
Summary: Light rain
Clouds: Overcast
Visibility: 1 3/4 miles , 5 km
Cloud details: Overcast 300 ft
2017/09/25 11:14 KFTG 251114Z AUTO 32008KT 1 3/4SM -RA OVC003 07/07 A3009 RMK AO2